createdAt,value
2022-10-02T00:02:06.672Z,11.40
2022-10-02T00:04:41.218Z,11.50
2022-10-02T00:07:12.819Z,11.40
2022-10-02T00:09:50.333Z,11.50
2022-10-02T00:12:24.424Z,11.50
2022-10-02T00:14:56.577Z,11.60
2022-10-02T00:17:29.408Z,11.70
2022-10-02T00:19:57.738Z,11.70
2022-10-02T00:22:35.282Z,11.80
2022-10-02T00:25:14.850Z,11.80
2022-10-02T00:27:58.795Z,11.80
2022-10-02T00:30:28.139Z,11.90
2022-10-02T00:33:06.647Z,11.90
2022-10-02T00:35:50.911Z,11.80
2022-10-02T00:38:31.524Z,11.90
2022-10-02T00:41:29.000Z,11.90
2022-10-02T00:44:15.946Z,12.00
2022-10-02T00:46:54.463Z,12.00
2022-10-02T00:49:48.372Z,12.00
2022-10-02T00:52:32.832Z,12.00
2022-10-02T00:55:26.699Z,12.00
2022-10-02T00:58:15.683Z,12.00
2022-10-02T01:00:53.719Z,12.10
2022-10-02T01:03:27.663Z,12.10
2022-10-02T01:05:55.664Z,12.10
2022-10-02T01:08:23.881Z,12.10
2022-10-02T01:10:52.071Z,12.10
2022-10-02T01:13:21.739Z,12.10
2022-10-02T01:15:54.694Z,12.10
2022-10-02T01:18:23.150Z,12.10
2022-10-02T01:20:53.563Z,12.00
2022-10-02T01:23:29.323Z,12.00
2022-10-02T01:25:59.339Z,11.80
2022-10-02T01:28:28.038Z,11.60
2022-10-02T01:31:02.527Z,11.50
2022-10-02T01:33:31.667Z,11.40
2022-10-02T01:36:02.552Z,11.30
2022-10-02T01:38:31.292Z,11.20
2022-10-02T01:41:00.682Z,11.40
2022-10-02T01:43:33.036Z,11.50
2022-10-02T01:46:16.743Z,11.60
2022-10-02T01:48:48.220Z,11.70
2022-10-02T01:51:55.199Z,11.70
2022-10-02T01:54:37.506Z,11.80
2022-10-02T01:57:16.799Z,11.80
2022-10-02T01:59:54.773Z,11.80
2022-10-02T02:02:29.718Z,11.90
2022-10-02T02:05:01.615Z,11.90
2022-10-02T02:07:35.799Z,11.90
2022-10-02T02:10:14.607Z,12.00
2022-10-02T02:12:49.468Z,12.00
2022-10-02T02:15:24.690Z,12.00
2022-10-02T02:17:58.649Z,12.00
2022-10-02T02:20:31.108Z,12.10
2022-10-02T02:23:05.207Z,12.10
2022-10-02T02:25:38.500Z,12.10
2022-10-02T02:28:12.435Z,12.10
2022-10-02T02:30:45.269Z,12.20
2022-10-02T02:33:18.300Z,12.10
2022-10-02T02:35:50.599Z,12.10
2022-10-02T02:38:24.887Z,12.10
2022-10-02T02:40:53.453Z,12.10
2022-10-02T02:43:27.443Z,12.10
2022-10-02T02:45:57.907Z,12.20
2022-10-02T02:48:28.905Z,12.20
2022-10-02T02:51:00.649Z,12.20
2022-10-02T02:53:33.276Z,12.20
2022-10-02T02:56:04.265Z,12.30
2022-10-02T02:58:38.606Z,12.30
2022-10-02T03:01:07.156Z,12.30
2022-10-02T03:03:35.357Z,12.20
2022-10-02T03:06:07.741Z,12.20
2022-10-02T03:08:37.527Z,12.20
2022-10-02T03:11:13.848Z,12.20
2022-10-02T03:13:56.151Z,12.20
2022-10-02T03:16:40.456Z,12.20
2022-10-02T03:19:24.731Z,12.20
2022-10-02T03:22:04.171Z,12.20
2022-10-02T03:24:36.548Z,12.20
2022-10-02T03:27:09.511Z,12.20
2022-10-02T03:29:46.039Z,12.20
2022-10-02T03:32:17.543Z,12.10
2022-10-02T03:34:45.862Z,12.10
2022-10-02T03:37:14.129Z,12.00
2022-10-02T03:39:44.436Z,12.10
2022-10-02T03:42:14.679Z,12.10
2022-10-02T03:44:44.810Z,12.10
2022-10-02T03:47:12.793Z,12.20
2022-10-02T03:49:40.842Z,12.20
2022-10-02T03:52:08.933Z,12.20
2022-10-02T03:54:37.755Z,12.30
2022-10-02T03:57:08.295Z,12.30
2022-10-02T03:59:48.366Z,12.30
2022-10-02T04:02:34.140Z,12.40
2022-10-02T04:05:10.249Z,12.40
2022-10-02T04:07:40.844Z,12.40
2022-10-02T04:10:30.676Z,12.30
2022-10-02T04:13:00.611Z,12.40
2022-10-02T04:15:35.636Z,12.30
2022-10-02T04:18:09.271Z,12.30
2022-10-02T04:20:44.650Z,12.30
2022-10-02T04:23:18.834Z,12.30
2022-10-02T04:25:51.991Z,12.30
2022-10-02T04:28:25.451Z,12.30
2022-10-02T04:30:55.150Z,12.30
2022-10-02T04:33:25.777Z,12.30
2022-10-02T04:36:06.067Z,12.30
2022-10-02T04:38:55.117Z,12.30
2022-10-02T04:41:40.470Z,12.30
2022-10-02T04:44:21.220Z,12.30
2022-10-02T04:47:08.712Z,12.30
2022-10-02T04:49:54.940Z,12.40
2022-10-02T04:52:50.267Z,12.50
2022-10-02T04:55:34.812Z,12.50
2022-10-02T04:58:23.775Z,12.60
2022-10-02T05:01:02.374Z,12.60
2022-10-02T05:03:48.471Z,12.60
2022-10-02T05:06:38.434Z,12.60
2022-10-02T05:09:18.046Z,12.60
2022-10-02T05:12:13.614Z,12.60
2022-10-02T05:15:04.830Z,12.60
2022-10-02T05:17:48.739Z,12.60
2022-10-02T05:20:39.218Z,12.60
2022-10-02T05:23:22.075Z,12.60
2022-10-02T05:26:14.672Z,12.50
2022-10-02T05:29:04.060Z,12.60
2022-10-02T05:31:43.203Z,12.60
2022-10-02T05:34:29.211Z,12.60
2022-10-02T05:37:14.180Z,12.60
2022-10-02T05:39:50.732Z,12.60
2022-10-02T05:42:27.509Z,12.60
2022-10-02T05:45:02.091Z,12.60
2022-10-02T05:47:32.847Z,12.70
2022-10-02T05:50:06.864Z,12.70
2022-10-02T05:52:41.215Z,12.80
2022-10-02T05:55:17.682Z,12.80
2022-10-02T05:57:49.722Z,12.80
2022-10-02T06:00:25.621Z,12.80
2022-10-02T06:03:01.349Z,12.80
2022-10-02T06:05:42.491Z,12.80
2022-10-02T06:08:15.233Z,12.80
2022-10-02T06:10:49.449Z,12.80
2022-10-02T06:13:26.995Z,12.80
2022-10-02T06:16:06.827Z,12.80
2022-10-02T06:18:38.602Z,12.80
2022-10-02T06:21:11.813Z,12.90
2022-10-02T06:23:45.722Z,12.90
2022-10-02T06:26:25.163Z,12.90
2022-10-02T06:29:00.463Z,12.90
2022-10-02T06:31:41.441Z,12.90
2022-10-02T06:34:13.166Z,12.90
2022-10-02T06:37:19.796Z,12.90
2022-10-02T06:40:06.195Z,13.00
2022-10-02T06:42:47.125Z,13.00
2022-10-02T06:45:23.356Z,13.00
2022-10-02T06:48:01.827Z,13.00
2022-10-02T06:50:43.139Z,13.10
2022-10-02T06:53:30.355Z,13.10
2022-10-02T06:56:09.717Z,13.10
2022-10-02T06:58:55.488Z,13.10
2022-10-02T07:01:35.372Z,13.10
2022-10-02T07:04:30.716Z,13.20
2022-10-02T07:07:12.138Z,13.20
2022-10-02T07:10:04.131Z,13.20
2022-10-02T07:13:12.288Z,13.30
2022-10-02T07:16:15.905Z,13.30
2022-10-02T07:19:12.575Z,13.30
2022-10-02T07:21:50.371Z,13.30
2022-10-02T07:24:40.390Z,13.40
2022-10-02T07:27:13.312Z,13.40
2022-10-02T07:29:51.405Z,13.30
2022-10-02T07:32:47.740Z,13.40
2022-10-02T07:35:38.200Z,13.40
2022-10-02T07:38:44.137Z,13.50
2022-10-02T07:41:42.540Z,13.50
2022-10-02T07:44:28.589Z,13.60
2022-10-02T07:47:09.911Z,13.60
2022-10-02T07:49:50.398Z,13.60
2022-10-02T07:52:26.928Z,13.50
2022-10-02T07:55:14.965Z,13.50
2022-10-02T07:57:52.236Z,13.50
2022-10-02T08:00:23.901Z,13.50
2022-10-02T08:02:57.715Z,13.50
2022-10-02T08:05:31.924Z,13.50
2022-10-02T08:08:04.530Z,13.60
2022-10-02T08:10:38.183Z,13.50
2022-10-02T08:13:14.288Z,13.50
2022-10-02T08:15:45.528Z,13.50
2022-10-02T08:18:34.112Z,13.50
2022-10-02T08:21:04.668Z,13.50
2022-10-02T08:23:40.578Z,13.50
2022-10-02T08:26:13.515Z,13.60
2022-10-02T08:28:45.626Z,13.60
2022-10-02T08:31:14.950Z,13.60
2022-10-02T08:33:44.583Z,13.60
2022-10-02T08:36:43.621Z,13.70
2022-10-02T08:39:27.117Z,13.70
2022-10-02T08:42:40.486Z,13.70
2022-10-02T08:45:47.729Z,13.70
2022-10-02T08:48:49.547Z,13.70
2022-10-02T08:51:51.647Z,13.70
2022-10-02T08:54:42.816Z,13.70
2022-10-02T08:57:41.569Z,13.60
2022-10-02T09:00:20.612Z,13.60
2022-10-02T09:03:20.547Z,13.60
2022-10-02T09:06:28.646Z,13.50
2022-10-02T09:09:43.220Z,13.40
2022-10-02T09:12:40.080Z,13.40
2022-10-02T09:15:16.881Z,13.50
2022-10-02T09:17:50.024Z,13.50
2022-10-02T09:20:43.010Z,13.40
2022-10-02T09:23:47.532Z,13.40
2022-10-02T09:26:26.877Z,13.30
2022-10-02T09:29:36.066Z,13.30
2022-10-02T09:32:44.152Z,13.30
2022-10-02T09:35:46.338Z,13.40
2022-10-02T09:38:44.773Z,13.40
2022-10-02T09:41:48.396Z,13.40
2022-10-02T09:45:01.583Z,13.40
2022-10-02T09:48:07.018Z,13.40
2022-10-02T09:51:20.149Z,13.50
2022-10-02T09:54:25.991Z,13.40
2022-10-02T09:57:35.770Z,13.40
2022-10-02T10:00:19.921Z,13.40
2022-10-02T10:03:22.631Z,13.50
2022-10-02T10:06:41.584Z,13.40
2022-10-02T10:09:44.057Z,13.50
2022-10-02T10:12:41.669Z,13.60
2022-10-02T10:15:35.713Z,13.70
2022-10-02T10:18:36.374Z,13.70
2022-10-02T10:21:41.330Z,13.80
2022-10-02T10:24:45.090Z,13.90
2022-10-02T10:27:40.410Z,13.90
2022-10-02T10:30:57.443Z,14.00
2022-10-02T10:33:49.126Z,13.90
2022-10-02T10:37:09.107Z,13.90
2022-10-02T10:40:07.737Z,13.80
2022-10-02T10:43:07.814Z,13.80
2022-10-02T10:45:56.120Z,13.70
2022-10-02T10:48:49.220Z,13.70
2022-10-02T10:51:33.656Z,13.70
2022-10-02T10:54:24.213Z,13.70
2022-10-02T10:56:57.694Z,13.70
2022-10-02T11:00:16.978Z,13.70
2022-10-02T11:03:23.328Z,13.70
2022-10-02T11:06:23.841Z,13.80
2022-10-02T11:09:36.609Z,13.80
2022-10-02T11:12:48.026Z,13.80
2022-10-02T11:15:38.413Z,13.80
2022-10-02T11:18:20.269Z,13.70
2022-10-02T11:21:10.472Z,13.70
2022-10-02T11:24:18.829Z,13.70
2022-10-02T11:27:13.124Z,13.70
2022-10-02T11:30:17.008Z,13.80
2022-10-02T11:32:59.172Z,13.90
2022-10-02T11:35:48.315Z,13.80
2022-10-02T11:38:35.490Z,13.80
2022-10-02T11:41:26.332Z,13.80
2022-10-02T11:44:16.784Z,13.70
2022-10-02T11:47:12.504Z,13.70
2022-10-02T11:50:04.347Z,13.60
2022-10-02T11:53:01.689Z,13.60
2022-10-02T11:55:47.089Z,13.60
2022-10-02T11:58:23.436Z,13.50
2022-10-02T12:01:11.926Z,13.50
2022-10-02T12:03:56.080Z,13.50
2022-10-02T12:06:37.647Z,13.50
2022-10-02T12:09:14.685Z,13.50
2022-10-02T12:11:48.213Z,13.40
2022-10-02T12:14:30.618Z,13.30
2022-10-02T12:17:09.248Z,13.30
2022-10-02T12:20:06.363Z,13.40
2022-10-02T12:22:57.553Z,13.30
2022-10-02T12:25:50.540Z,13.50
2022-10-02T12:28:29.005Z,13.50
2022-10-02T12:31:05.868Z,13.50
2022-10-02T12:33:44.036Z,13.60
2022-10-02T12:36:46.865Z,13.60
2022-10-02T12:39:32.966Z,13.70
2022-10-02T12:42:12.086Z,13.80
2022-10-02T12:45:00.631Z,13.80
2022-10-02T12:47:56.734Z,13.80
2022-10-02T12:50:44.429Z,13.80
2022-10-02T12:53:44.235Z,13.90
2022-10-02T12:56:54.901Z,13.90
2022-10-02T12:59:32.365Z,14.00
2022-10-02T13:03:00.908Z,14.00
2022-10-02T13:05:54.748Z,13.80
2022-10-02T13:08:48.342Z,13.80
2022-10-02T13:11:30.138Z,13.70
2022-10-02T13:14:17.999Z,13.70
2022-10-02T13:17:10.471Z,13.60
2022-10-02T13:19:59.396Z,13.60
2022-10-02T13:22:38.402Z,13.50
2022-10-02T13:25:42.721Z,13.50
2022-10-02T13:28:30.837Z,13.50
2022-10-02T13:31:09.920Z,13.50
2022-10-02T13:34:01.804Z,13.50
2022-10-02T13:36:44.310Z,13.50
2022-10-02T13:39:31.545Z,13.60
2022-10-02T13:42:20.383Z,13.70
2022-10-02T13:45:00.380Z,13.90
2022-10-02T13:47:40.364Z,14.00
2022-10-02T13:50:31.029Z,14.10
2022-10-02T13:53:40.153Z,14.10
2022-10-02T13:56:24.517Z,14.10
2022-10-02T13:59:09.426Z,14.00
2022-10-02T14:01:50.117Z,14.00
2022-10-02T14:04:38.472Z,14.00
2022-10-02T14:07:19.192Z,14.00
2022-10-02T14:09:56.768Z,13.90
2022-10-02T14:12:28.684Z,13.70
2022-10-02T14:15:32.400Z,13.70
2022-10-02T14:18:26.244Z,13.60
2022-10-02T14:21:03.412Z,13.60
2022-10-02T14:23:48.207Z,13.60
2022-10-02T14:26:29.717Z,13.70
2022-10-02T14:29:13.292Z,13.60
2022-10-02T14:32:11.515Z,13.60
2022-10-02T14:35:09.660Z,13.70
2022-10-02T14:38:14.961Z,13.70
2022-10-02T14:40:53.054Z,13.60
2022-10-02T14:43:56.897Z,13.60
2022-10-02T14:46:42.962Z,13.60
2022-10-02T14:49:45.269Z,13.60
2022-10-02T14:52:29.337Z,13.60
2022-10-02T14:55:35.853Z,13.60
2022-10-02T14:58:31.193Z,13.70
2022-10-02T15:01:26.479Z,13.70
2022-10-02T15:04:29.204Z,13.70
2022-10-02T15:07:06.877Z,13.80
2022-10-02T15:09:39.986Z,13.80
2022-10-02T15:12:18.222Z,13.70
2022-10-02T15:15:08.666Z,13.70
2022-10-02T15:17:55.926Z,13.70
2022-10-02T15:20:31.918Z,13.60
2022-10-02T15:23:03.325Z,13.60
2022-10-02T15:25:52.238Z,13.50
2022-10-02T15:28:36.921Z,13.50
2022-10-02T15:31:18.589Z,13.50
2022-10-02T15:33:56.785Z,13.40
2022-10-02T15:36:43.803Z,13.40
2022-10-02T15:39:44.281Z,13.40
2022-10-02T15:42:27.558Z,13.30
2022-10-02T15:45:20.456Z,13.30
2022-10-02T15:48:15.168Z,13.30
2022-10-02T15:50:53.062Z,13.30
2022-10-02T15:53:46.220Z,13.20
2022-10-02T15:56:31.712Z,13.30
2022-10-02T15:59:16.745Z,13.30
2022-10-02T16:01:57.584Z,13.30
2022-10-02T16:04:33.421Z,13.30
2022-10-02T16:07:42.750Z,13.20
2022-10-02T16:10:25.642Z,13.20
2022-10-02T16:13:07.392Z,13.10
2022-10-02T16:15:51.074Z,13.10
2022-10-02T16:18:41.846Z,13.10
2022-10-02T16:21:54.293Z,13.10
2022-10-02T16:24:48.932Z,13.10
2022-10-02T16:27:46.672Z,13.00
2022-10-02T16:30:16.398Z,13.00
2022-10-02T16:33:07.526Z,12.90
2022-10-02T16:35:56.132Z,12.90
2022-10-02T16:38:37.942Z,12.80
2022-10-02T16:41:37.059Z,12.70
2022-10-02T16:44:32.464Z,12.70
2022-10-02T16:47:07.990Z,12.60
2022-10-02T16:49:50.935Z,12.60
2022-10-02T16:52:24.519Z,12.50
2022-10-02T16:55:00.252Z,12.50
2022-10-02T16:57:50.155Z,12.50
2022-10-02T17:00:25.501Z,12.50
2022-10-02T17:03:01.431Z,12.40
2022-10-02T17:05:36.480Z,12.40
2022-10-02T17:08:10.302Z,12.40
2022-10-02T17:10:47.419Z,12.30
2022-10-02T17:13:29.819Z,12.30
2022-10-02T17:16:04.260Z,12.30
2022-10-02T17:18:41.484Z,12.20
2022-10-02T17:21:16.851Z,12.20
2022-10-02T17:23:58.758Z,12.20
2022-10-02T17:26:35.831Z,12.10
2022-10-02T17:29:14.231Z,12.00
2022-10-02T17:31:51.622Z,12.00
2022-10-02T17:34:24.927Z,12.00
2022-10-02T17:37:04.756Z,12.10
2022-10-02T17:39:44.013Z,12.20
2022-10-02T17:42:23.753Z,12.20
2022-10-02T17:45:04.723Z,12.20
2022-10-02T17:47:47.655Z,12.20
2022-10-02T17:50:30.828Z,12.20
2022-10-02T17:53:32.237Z,12.20
2022-10-02T17:56:30.977Z,12.10
2022-10-02T17:59:13.813Z,12.10
2022-10-02T18:01:50.086Z,12.10
2022-10-02T18:04:25.316Z,12.10
2022-10-02T18:07:03.014Z,12.10
2022-10-02T18:09:47.877Z,12.10
2022-10-02T18:12:31.637Z,12.10
2022-10-02T18:15:35.615Z,12.00
2022-10-02T18:18:24.284Z,12.00
2022-10-02T18:21:01.394Z,12.00
2022-10-02T18:23:52.418Z,12.00
2022-10-02T18:26:35.253Z,12.00
2022-10-02T18:29:41.220Z,12.00
2022-10-02T18:32:27.341Z,12.10
2022-10-02T18:35:14.405Z,12.10
2022-10-02T18:37:57.113Z,12.20
2022-10-02T18:40:28.813Z,12.20
2022-10-02T18:43:26.848Z,12.20
2022-10-02T18:46:07.710Z,12.00
2022-10-02T18:48:59.792Z,12.00
2022-10-02T18:51:55.767Z,11.90
2022-10-02T18:54:30.595Z,11.80
2022-10-02T18:57:14.067Z,11.80
2022-10-02T18:59:56.060Z,11.80
2022-10-02T19:02:38.730Z,11.80
2022-10-02T19:05:25.711Z,11.80
2022-10-02T19:08:10.034Z,11.80
2022-10-02T19:10:44.969Z,11.80
2022-10-02T19:13:18.280Z,11.70
2022-10-02T19:15:49.571Z,11.60
2022-10-02T19:18:24.025Z,11.60
2022-10-02T19:20:57.618Z,11.60
2022-10-02T19:23:30.024Z,11.60
2022-10-02T19:26:02.847Z,11.60
2022-10-02T19:28:36.616Z,11.70
2022-10-02T19:31:12.287Z,11.70
2022-10-02T19:33:46.012Z,11.70
2022-10-02T19:36:21.080Z,11.70
2022-10-02T19:38:56.496Z,11.80
2022-10-02T19:41:27.308Z,11.70
2022-10-02T19:43:59.021Z,11.60
2022-10-02T19:46:37.294Z,11.40
2022-10-02T19:49:07.362Z,11.30
2022-10-02T19:51:44.850Z,11.20
2022-10-02T19:54:18.194Z,11.00
2022-10-02T19:56:47.659Z,10.90
2022-10-02T19:59:19.241Z,10.90
2022-10-02T20:01:53.534Z,10.80
2022-10-02T20:04:24.038Z,10.80
2022-10-02T20:06:57.359Z,10.90
2022-10-02T20:09:33.028Z,10.80
2022-10-02T20:12:05.856Z,10.80
2022-10-02T20:14:40.687Z,10.80
2022-10-02T20:17:10.444Z,10.80
2022-10-02T20:19:45.116Z,10.80
2022-10-02T20:22:23.988Z,10.90
2022-10-02T20:24:56.786Z,11.00
2022-10-02T20:27:34.796Z,11.10
2022-10-02T20:30:07.038Z,11.20
2022-10-02T20:32:39.742Z,11.30
2022-10-02T20:35:14.424Z,11.40
2022-10-02T20:37:44.099Z,11.40
2022-10-02T20:40:16.544Z,11.50
2022-10-02T20:42:55.262Z,11.50
2022-10-02T20:45:26.125Z,11.50
2022-10-02T20:49:06.374Z,11.50
2022-10-02T20:51:48.248Z,11.50
2022-10-02T20:54:35.914Z,11.50
2022-10-02T20:57:59.482Z,11.40
2022-10-02T21:00:29.072Z,11.30
2022-10-02T21:03:41.821Z,11.20
2022-10-02T21:06:38.513Z,11.10
2022-10-02T21:09:34.624Z,11.00
2022-10-02T21:12:31.847Z,11.00
2022-10-02T21:15:33.070Z,10.80
2022-10-02T21:18:26.450Z,10.80
2022-10-02T21:21:41.396Z,10.80
2022-10-02T21:24:45.637Z,10.70
2022-10-02T21:27:58.093Z,10.70
2022-10-02T21:30:36.241Z,10.70
2022-10-02T21:33:15.346Z,10.60
2022-10-02T21:35:49.132Z,10.60
2022-10-02T21:38:50.258Z,10.60
2022-10-02T21:41:51.787Z,10.50
2022-10-02T21:44:46.787Z,10.50
2022-10-02T21:47:49.528Z,10.50
2022-10-02T21:50:56.874Z,10.40
2022-10-02T21:54:08.094Z,10.40
2022-10-02T21:57:07.495Z,10.30
2022-10-02T22:00:07.300Z,10.40
2022-10-02T22:03:10.257Z,10.50
2022-10-02T22:06:05.235Z,10.50
2022-10-02T22:08:43.676Z,10.40
2022-10-02T22:11:16.561Z,10.40
2022-10-02T22:13:48.269Z,10.40
2022-10-02T22:16:34.584Z,10.30
2022-10-02T22:19:15.648Z,10.20
2022-10-02T22:22:01.689Z,10.20
2022-10-02T22:24:47.665Z,10.20
2022-10-02T22:27:31.121Z,10.30
2022-10-02T22:30:00.469Z,10.40
2022-10-02T22:33:11.485Z,10.40
2022-10-02T22:36:14.622Z,10.40
2022-10-02T22:38:49.276Z,10.30
2022-10-02T22:41:27.517Z,10.20
2022-10-02T22:43:59.495Z,10.20
2022-10-02T22:46:41.561Z,10.20
2022-10-02T22:49:20.550Z,10.20
2022-10-02T22:52:00.014Z,10.20
2022-10-02T22:54:35.347Z,10.40
2022-10-02T22:57:14.627Z,10.50
2022-10-02T22:59:49.508Z,10.60
2022-10-02T23:02:24.835Z,10.60
2022-10-02T23:04:59.913Z,10.60
2022-10-02T23:07:31.111Z,10.50
2022-10-02T23:10:03.887Z,10.40
2022-10-02T23:12:44.892Z,10.30
2022-10-02T23:15:38.868Z,10.30
2022-10-02T23:18:24.231Z,10.20
2022-10-02T23:21:04.651Z,10.20
2022-10-02T23:23:52.080Z,10.20
2022-10-02T23:26:33.047Z,10.20
2022-10-02T23:29:34.530Z,10.10
2022-10-02T23:32:19.752Z,10.10
2022-10-02T23:34:58.954Z,10.00
2022-10-02T23:37:33.160Z,10.00
2022-10-02T23:40:15.975Z,9.90
2022-10-02T23:42:48.797Z,9.90
2022-10-02T23:45:26.640Z,9.80
2022-10-02T23:48:00.238Z,9.80
2022-10-02T23:50:37.259Z,9.80
2022-10-02T23:53:38.677Z,9.90
2022-10-02T23:56:23.903Z,9.90
2022-10-02T23:59:06.795Z,9.90
